Time,TemperatureF,DewpointF,PressureIn,WindDirection,WindDirectionDegrees,WindSpeedMPH,WindSpeedGustMPH,Humidity,HourlyPrecipIn,Conditions,Clouds,dailyrainin,SoftwareType,DateUTC
2013-10-17 00:00:00,61.5,60.1,30.03,SW,225,1.3,10.3,95,-99.99,,,0.00,VWS V14.01,2013-10-17 04:00:00,
2013-10-17 00:30:00,61.5,60.4,30.03,North,0,3.1,6.0,96,-99.99,,,0.00,VWS V14.01,2013-10-17 04:30:00,
2013-10-17 01:00:00,61.3,60.2,30.03,SW,225,2.0,6.0,96,-99.99,,,0.00,VWS V14.01,2013-10-17 05:00:00,
2013-10-17 01:30:00,61.3,60.2,30.03,SW,225,0.0,6.0,96,-99.99,,,0.00,VWS V14.01,2013-10-17 05:30:00,
2013-10-17 02:00:00,61.3,59.9,30.03,ENE,68,2.7,6.0,95,-99.99,,,0.00,VWS V14.01,2013-10-17 06:00:00,
2013-10-17 02:30:00,61.3,59.9,30.03,South,180,1.1,4.0,95,-99.99,,,0.00,VWS V14.01,2013-10-17 06:30:00,
2013-10-17 03:00:00,60.8,59.7,30.00,East,90,2.9,3.8,96,-99.99,,,0.00,VWS V14.01,2013-10-17 07:00:00,
2013-10-17 03:30:00,61.0,60.1,30.00,SW,225,2.7,6.5,97,-99.99,,,0.00,VWS V14.01,2013-10-17 07:30:00,
2013-10-17 04:00:00,60.8,60.0,30.00,SW,225,1.3,7.8,97,-99.99,,,0.04,VWS V14.01,2013-10-17 08:00:00,
2013-10-17 04:30:00,60.8,60.0,30.00,SW,225,2.0,8.1,97,-99.99,,,0.04,VWS V14.01,2013-10-17 08:30:00,
2013-10-17 05:00:00,60.6,60.1,30.00,East,90,2.9,7.6,98,-99.99,,,0.08,VWS V14.01,2013-10-17 09:00:00,
2013-10-17 05:30:00,60.8,60.2,30.00,NE,45,4.0,6.5,98,-99.99,,,0.08,VWS V14.01,2013-10-17 09:30:00,
2013-10-17 06:00:00,60.8,60.2,30.00,SW,225,3.4,4.9,98,-99.99,,,0.08,VWS V14.01,2013-10-17 10:00:00,
2013-10-17 06:30:00,61.0,60.4,30.00,West,270,1.6,5.4,98,-99.99,,,0.08,VWS V14.01,2013-10-17 10:30:00,
2013-10-17 07:30:00,61.2,60.6,30.00,East,90,4.3,7.2,98,-99.99,,,0.08,VWS V14.01,2013-10-17 11:30:00,
2013-10-17 08:00:00,61.2,60.6,29.97,WSW,248,0.0,9.8,98,-99.99,,,0.13,VWS V14.01,2013-10-17 12:00:00,
2013-10-17 08:30:00,61.3,60.8,29.97,SSW,202,5.6,8.1,98,-99.99,,,0.13,VWS V14.01,2013-10-17 12:30:00,
2013-10-17 09:00:00,61.7,61.1,29.97,SSE,158,4.0,7.8,98,-99.99,,,0.13,VWS V14.01,2013-10-17 13:00:00,
2013-10-17 09:30:00,62.1,61.5,30.00,SW,225,2.5,6.0,98,-99.99,,,0.13,VWS V14.01,2013-10-17 13:30:00,
2013-10-17 10:00:00,62.4,61.8,30.00,SW,225,2.0,6.0,98,-99.99,,,0.13,VWS V14.01,2013-10-17 14:00:00,
2013-10-17 10:30:00,63.1,62.6,30.00,South,180,2.9,7.6,98,-99.99,,,0.13,VWS V14.01,2013-10-17 14:30:00,
2013-10-17 11:00:00,63.3,62.8,30.00,SSE,158,2.5,7.4,98,-99.99,,,0.13,VWS V14.01,2013-10-17 15:00:00,
2013-10-17 11:30:00,63.7,63.1,30.00,WNW,292,2.7,3.8,98,-99.99,,,0.13,VWS V14.01,2013-10-17 15:30:00,
2013-10-17 12:00:00,64.2,63.7,30.00,WNW,292,0.9,5.4,98,-99.99,,,0.13,VWS V14.01,2013-10-17 16:00:00,
2013-10-17 12:30:00,64.6,64.0,30.00,West,270,3.6,4.3,98,-99.99,,,0.13,VWS V14.01,2013-10-17 16:30:00,
2013-10-17 13:30:00,64.9,64.4,30.00,West,270,2.9,6.3,98,-99.99,,,0.13,VWS V14.01,2013-10-17 17:30:00,
2013-10-17 14:00:00,65.8,65.3,29.97,WNW,292,2.7,6.5,98,-99.99,,,0.13,VWS V14.01,2013-10-17 18:00:00,
2013-10-17 14:30:00,66.2,65.3,29.97,WNW,292,3.1,6.5,97,-99.99,,,0.13,VWS V14.01,2013-10-17 18:30:00,
2013-10-17 15:00:00,67.1,66.2,29.97,WNW,292,2.5,7.2,97,-99.99,,,0.13,VWS V14.01,2013-10-17 19:00:00,
2013-10-17 16:01:00,66.4,64.3,29.97,SW,225,2.5,7.2,93,-99.99,,,0.13,VWS V14.01,2013-10-17 20:01:00,
2013-10-17 16:30:00,65.5,63.4,29.97,SW,225,0.0,6.0,93,-99.99,,,0.13,VWS V14.01,2013-10-17 20:30:00,
2013-10-17 16:31:00,65.5,63.4,29.97,SW,225,0.0,6.0,93,-99.99,,,0.13,VWS V14.01,2013-10-17 20:31:00,
2013-10-17 17:00:00,64.2,62.2,30.00,WSW,248,2.0,4.9,93,-99.99,,,0.13,VWS V14.01,2013-10-17 21:00:00,
2013-10-17 17:30:00,63.1,61.1,30.00,NW,315,4.3,4.3,93,-99.99,,,0.13,VWS V14.01,2013-10-17 21:30:00,
2013-10-17 18:00:00,61.9,59.2,30.00,West,270,3.1,4.9,91,-99.99,,,0.13,VWS V14.01,2013-10-17 22:00:00,
2013-10-17 18:30:00,61.0,58.6,30.00,North,0,1.6,4.0,92,-99.99,,,0.13,VWS V14.01,2013-10-17 22:30:00,
2013-10-17 19:00:00,60.6,58.3,30.00,West,270,2.0,3.8,92,-99.99,,,0.13,VWS V14.01,2013-10-17 23:00:00,
2013-10-17 19:31:00,59.9,57.9,30.03,South,180,0.0,3.1,93,-99.99,,,0.13,VWS V14.01,2013-10-17 23:31:00,
2013-10-17 20:00:00,59.5,57.5,30.03,WSW,248,5.4,5.6,93,-99.99,,,0.13,VWS V14.01,2013-10-18 00:00:00,
2013-10-17 20:30:00,58.8,56.5,30.03,West,270,3.8,5.4,92,-99.99,,,0.13,VWS V14.01,2013-10-18 00:30:00,
2013-10-17 21:00:00,57.9,55.6,30.03,North,0,0.0,5.8,92,-99.99,,,0.13,VWS V14.01,2013-10-18 01:00:00,
2013-10-17 21:30:00,57.2,54.6,30.03,NNW,338,0.9,5.6,91,-99.99,,,0.13,VWS V14.01,2013-10-18 01:30:00,
2013-10-17 22:00:00,55.9,53.0,30.06,North,0,1.6,6.7,90,-99.99,,,0.13,VWS V14.01,2013-10-18 02:00:00,
2013-10-17 22:30:00,55.2,52.6,30.06,North,0,2.7,7.6,91,-99.99,,,0.13,VWS V14.01,2013-10-18 02:30:00,
2013-10-17 23:00:00,54.1,50.7,30.06,East,90,3.4,9.8,88,-99.99,,,0.13,VWS V14.01,2013-10-18 03:00:00,
2013-10-17 23:30:00,53.6,50.1,30.06,East,90,7.2,9.4,88,-99.99,,,0.13,VWS V14.01,2013-10-18 03:30:00,